createdAt,value
2019-02-05T00:00:21.784Z,1011.32
2019-02-05T00:01:21.779Z,1011.28
2019-02-05T00:02:21.762Z,1011.28
2019-02-05T00:03:21.781Z,1011.26
2019-02-05T00:04:21.740Z,1011.21
2019-02-05T00:05:21.738Z,1011.21
2019-02-05T00:06:21.719Z,1011.23
2019-02-05T00:07:21.710Z,1011.21
2019-02-05T00:08:21.703Z,1011.27
2019-02-05T00:09:21.716Z,1011.25
2019-02-05T00:10:21.676Z,1011.27
2019-02-05T00:11:21.667Z,1011.30
2019-02-05T00:12:21.661Z,1011.25
2019-02-05T00:13:21.644Z,1011.24
2019-02-05T00:14:21.632Z,1011.31
2019-02-05T00:15:21.640Z,1011.27
2019-02-05T00:16:21.612Z,1011.31
2019-02-05T00:17:21.598Z,1011.24
2019-02-05T00:18:21.588Z,1011.31
2019-02-05T00:19:21.577Z,1011.29
2019-02-05T00:20:21.594Z,1011.34
2019-02-05T00:21:21.553Z,1011.33
2019-02-05T00:22:21.547Z,1011.37
2019-02-05T00:23:21.584Z,1011.30
2019-02-05T00:24:21.544Z,1011.30
2019-02-05T00:25:21.512Z,1011.24
2019-02-05T00:26:21.502Z,1011.27
2019-02-05T00:27:21.501Z,1011.26
2019-02-05T00:28:21.481Z,1011.24
2019-02-05T00:29:21.471Z,1011.23
2019-02-05T00:30:21.479Z,1011.28
2019-02-05T00:31:21.445Z,1011.27
2019-02-05T00:32:21.435Z,1011.38
2019-02-05T00:33:21.452Z,1011.40
2019-02-05T00:34:21.418Z,1011.46
2019-02-05T00:35:21.404Z,1011.49
2019-02-05T00:36:21.390Z,1011.51
2019-02-05T00:37:21.383Z,1011.49
2019-02-05T00:38:21.372Z,1011.51
2019-02-05T00:39:21.380Z,1011.43
2019-02-05T00:40:21.352Z,1011.43
2019-02-05T00:41:21.340Z,1011.34
2019-02-05T00:42:21.329Z,1011.44
2019-02-05T00:43:21.320Z,1011.46
2019-02-05T00:44:21.320Z,1011.40
2019-02-05T00:45:21.294Z,1011.40
2019-02-05T00:46:21.288Z,1011.41
2019-02-05T00:47:21.279Z,1011.41
2019-02-05T00:48:21.264Z,1011.46
2019-02-05T00:49:21.286Z,1011.43
2019-02-05T00:50:21.241Z,1011.55
2019-02-05T00:51:21.231Z,1011.53
2019-02-05T00:52:21.223Z,1011.58
2019-02-05T00:53:21.209Z,1011.53
2019-02-05T00:54:21.197Z,1011.54
2019-02-05T00:55:21.217Z,1011.58
2019-02-05T00:56:21.180Z,1011.59
2019-02-05T00:57:21.170Z,1011.64
2019-02-05T00:58:21.155Z,1011.64
2019-02-05T00:59:21.144Z,1011.60
2019-02-05T01:00:21.134Z,1011.61
2019-02-05T01:01:21.140Z,1011.59
2019-02-05T01:02:21.138Z,1011.61
2019-02-05T01:03:21.098Z,1011.54
2019-02-05T01:04:21.086Z,1011.56
2019-02-05T01:05:21.080Z,1011.57
2019-02-05T01:06:21.076Z,1011.57
2019-02-05T01:07:21.055Z,1011.58
2019-02-05T01:08:21.060Z,1011.71
2019-02-05T01:09:21.035Z,1011.66
2019-02-05T01:10:21.022Z,1011.65
2019-02-05T01:11:21.012Z,1011.66
2019-02-05T01:12:21.003Z,1011.67
2019-02-05T01:13:21.005Z,1011.70
2019-02-05T01:14:20.988Z,1011.74
2019-02-05T01:15:20.968Z,1011.75
2019-02-05T01:16:20.963Z,1011.73
2019-02-05T01:17:20.946Z,1011.74
2019-02-05T01:18:20.975Z,1011.70
2019-02-05T01:19:20.924Z,1011.73
2019-02-05T01:20:20.917Z,1011.73
2019-02-05T01:21:20.905Z,1011.75
2019-02-05T01:22:20.897Z,1011.73
2019-02-05T01:23:20.884Z,1011.69
2019-02-05T01:24:20.891Z,1011.68
2019-02-05T01:25:20.860Z,1011.72
2019-02-05T01:26:29.019Z,1011.69
2019-02-05T01:27:21.841Z,1011.77
2019-02-05T01:28:20.834Z,1011.82
2019-02-05T01:29:20.838Z,1011.86
2019-02-05T01:30:20.809Z,1011.94
2019-02-05T01:31:20.794Z,1011.93
2019-02-05T01:32:20.790Z,1011.91
2019-02-05T01:33:20.773Z,1011.89
2019-02-05T01:34:20.799Z,1011.90
2019-02-05T01:35:20.755Z,1011.86
2019-02-05T01:36:20.744Z,1011.81
2019-02-05T01:37:20.731Z,1011.82
2019-02-05T01:38:20.718Z,1011.79
2019-02-05T01:39:20.717Z,1011.74
2019-02-05T01:40:20.731Z,1011.72
2019-02-05T01:41:20.688Z,1011.70
2019-02-05T01:42:20.679Z,1011.68
2019-02-05T01:43:20.669Z,1011.67
2019-02-05T01:44:20.662Z,1011.66
2019-02-05T01:45:20.653Z,1011.65
2019-02-05T01:46:20.675Z,1011.62
2019-02-05T01:47:20.628Z,1011.75
2019-02-05T01:48:20.615Z,1011.70
2019-02-05T01:49:27.642Z,1011.70
2019-02-05T01:50:20.597Z,1011.70
2019-02-05T01:51:20.580Z,1011.64
2019-02-05T01:52:20.602Z,1011.68
2019-02-05T01:53:20.561Z,1011.56
2019-02-05T01:54:20.556Z,1011.58
2019-02-05T01:55:20.540Z,1011.63
2019-02-05T01:56:20.525Z,1011.65
2019-02-05T01:57:20.517Z,1011.60
2019-02-05T01:58:20.524Z,1011.65
2019-02-05T01:59:20.494Z,1011.63
2019-02-05T02:00:20.485Z,1011.62
2019-02-05T02:01:20.472Z,1011.66
2019-02-05T02:02:20.485Z,1011.64
2019-02-05T02:03:20.452Z,1011.60
2019-02-05T02:04:20.441Z,1011.64
2019-02-05T02:05:20.432Z,1011.67
2019-02-05T02:06:20.425Z,1011.72
2019-02-05T02:07:20.430Z,1011.80
2019-02-05T02:08:20.399Z,1011.82
2019-02-05T02:09:20.386Z,1011.89
2019-02-05T02:10:20.374Z,1011.88
2019-02-05T02:11:20.364Z,1011.91
2019-02-05T02:12:20.356Z,1011.94
2019-02-05T02:13:20.370Z,1011.87
2019-02-05T02:14:20.336Z,1011.83
2019-02-05T02:15:20.321Z,1011.82
2019-02-05T02:16:20.312Z,1011.78
2019-02-05T02:17:20.302Z,1011.79
2019-02-05T02:18:20.298Z,1011.76
2019-02-05T02:19:20.301Z,1011.76
2019-02-05T02:20:20.270Z,1011.78
2019-02-05T02:21:20.257Z,1011.79
2019-02-05T02:22:20.246Z,1011.76
2019-02-05T02:23:20.238Z,1011.77
2019-02-05T02:24:20.249Z,1011.78
2019-02-05T02:25:20.216Z,1011.76
2019-02-05T02:26:20.208Z,1011.77
2019-02-05T02:27:20.195Z,1011.73
2019-02-05T02:28:20.182Z,1011.71
2019-02-05T02:29:20.186Z,1011.67
2019-02-05T02:30:20.164Z,1011.70
2019-02-05T02:31:20.153Z,1011.71
2019-02-05T02:32:20.140Z,1011.71
2019-02-05T02:33:20.134Z,1011.70
2019-02-05T02:34:20.139Z,1011.69
2019-02-05T02:35:20.115Z,1011.70
2019-02-05T02:36:20.096Z,1011.71
2019-02-05T02:37:20.091Z,1011.72
2019-02-05T02:38:20.076Z,1011.77
2019-02-05T02:39:20.100Z,1011.76
2019-02-05T02:40:20.053Z,1011.74
2019-02-05T02:41:20.042Z,1011.66
2019-02-05T02:42:20.032Z,1011.68
2019-02-05T02:43:20.020Z,1011.67
2019-02-05T02:44:20.009Z,1011.63
2019-02-05T02:45:20.017Z,1011.71
2019-02-05T02:46:19.988Z,1011.65
2019-02-05T02:47:19.985Z,1011.63
2019-02-05T02:48:19.968Z,1011.71
2019-02-05T02:49:19.963Z,1011.71
2019-02-05T02:50:19.963Z,1011.72
2019-02-05T02:51:19.943Z,1011.71
2019-02-05T02:52:19.930Z,1011.70
2019-02-05T02:53:19.915Z,1011.78
2019-02-05T02:54:19.906Z,1011.73
2019-02-05T02:55:19.931Z,1011.75
2019-02-05T02:56:19.879Z,1011.73
2019-02-05T02:57:19.870Z,1011.72
2019-02-05T02:58:19.861Z,1011.71
2019-02-05T02:59:19.848Z,1011.76
2019-02-05T03:00:19.847Z,1011.74
2019-02-05T03:01:19.901Z,1011.77
2019-02-05T03:02:19.921Z,1011.73
2019-02-05T03:03:19.807Z,1011.70
2019-02-05T03:04:19.796Z,1011.74
2019-02-05T03:05:19.783Z,1011.76
2019-02-05T03:06:19.773Z,1011.69
2019-02-05T03:07:19.778Z,1011.76
2019-02-05T03:08:19.754Z,1011.78
2019-02-05T03:09:19.740Z,1011.83
2019-02-05T03:10:19.731Z,1011.84
2019-02-05T03:11:19.722Z,1011.88
2019-02-05T03:12:19.729Z,1011.89
2019-02-05T03:13:19.700Z,1011.91
2019-02-05T03:14:19.685Z,1011.93
2019-02-05T03:15:19.686Z,1011.96
2019-02-05T03:16:19.668Z,1011.98
2019-02-05T03:17:19.680Z,1012.02
2019-02-05T03:18:19.641Z,1012.00
2019-02-05T03:19:19.632Z,1012.00
2019-02-05T03:20:19.647Z,1011.99
2019-02-05T03:21:19.610Z,1011.96
2019-02-05T03:22:19.609Z,1011.94
2019-02-05T03:23:19.588Z,1011.93
2019-02-05T03:24:19.580Z,1011.83
2019-02-05T03:25:19.567Z,1011.88
2019-02-05T03:26:19.571Z,1011.84
2019-02-05T03:27:19.548Z,1011.87
2019-02-05T03:28:19.560Z,1011.92
2019-02-05T03:29:19.522Z,1011.93
2019-02-05T03:30:19.533Z,1011.93
2019-02-05T03:31:19.507Z,1011.91
2019-02-05T03:32:19.553Z,1011.92
2019-02-05T03:33:19.514Z,1011.93
2019-02-05T03:34:19.470Z,1011.89
2019-02-05T03:35:19.458Z,1011.89
2019-02-05T03:36:19.448Z,1011.89
2019-02-05T03:37:19.470Z,1011.90
2019-02-05T03:38:19.428Z,1011.88
2019-02-05T03:39:19.422Z,1011.90
2019-02-05T03:40:19.406Z,1011.92
2019-02-05T03:41:19.396Z,1011.94
2019-02-05T03:42:19.383Z,1011.90
2019-02-05T03:43:19.393Z,1011.94
2019-02-05T03:44:19.362Z,1011.94
2019-02-05T03:45:19.357Z,1011.95
2019-02-05T03:46:19.357Z,1011.90
2019-02-05T03:47:19.330Z,1011.91
2019-02-05T03:48:19.319Z,1011.89
2019-02-05T03:49:19.308Z,1011.88
2019-02-05T03:50:19.331Z,1011.91
2019-02-05T03:51:19.286Z,1011.87
2019-02-05T03:52:19.279Z,1011.84
2019-02-05T03:53:19.273Z,1011.84
2019-02-05T03:54:19.259Z,1011.85
2019-02-05T03:55:19.295Z,1011.80
2019-02-05T03:56:19.233Z,1011.81
2019-02-05T03:57:30.708Z,1011.76
2019-02-05T03:58:20.217Z,1011.78
2019-02-05T03:59:19.200Z,1011.83
2019-02-05T04:00:19.190Z,1011.79
2019-02-05T04:01:19.199Z,1011.82
2019-02-05T04:02:19.202Z,1011.83
2019-02-05T04:03:19.161Z,1011.87
2019-02-05T04:04:19.148Z,1011.84
2019-02-05T04:05:19.136Z,1011.84
2019-02-05T04:06:19.157Z,1011.88
2019-02-05T04:07:19.123Z,1011.84
2019-02-05T04:08:19.100Z,1011.82
2019-02-05T04:09:19.094Z,1011.90
2019-02-05T04:10:19.161Z,1011.89
2019-02-05T04:11:19.069Z,1011.90
2019-02-05T04:12:19.080Z,1011.90
2019-02-05T04:13:19.069Z,1011.87
2019-02-05T04:14:19.039Z,1011.91
2019-02-05T04:15:19.027Z,1011.88
2019-02-05T04:16:19.017Z,1011.84
2019-02-05T04:17:19.009Z,1011.86
2019-02-05T04:18:19.014Z,1011.85
2019-02-05T04:19:18.982Z,1011.87
2019-02-05T04:20:18.972Z,1011.80
2019-02-05T04:21:18.970Z,1011.80
2019-02-05T04:22:18.951Z,1011.86
2019-02-05T04:23:18.971Z,1011.79
2019-02-05T04:24:18.927Z,1011.76
2019-02-05T04:25:18.925Z,1011.72
2019-02-05T04:26:18.913Z,1011.68
2019-02-05T04:27:18.896Z,1011.70
2019-02-05T04:28:18.932Z,1011.70
2019-02-05T04:29:18.913Z,1011.70
2019-02-05T04:30:18.865Z,1011.72
2019-02-05T04:31:18.856Z,1011.71
2019-02-05T04:32:18.848Z,1011.72
2019-02-05T04:33:18.834Z,1011.68
2019-02-05T04:34:18.842Z,1011.73
2019-02-05T04:35:18.813Z,1011.71
2019-02-05T04:36:18.799Z,1011.71
2019-02-05T04:37:18.792Z,1011.70
2019-02-05T04:38:18.796Z,1011.64
2019-02-05T04:39:18.767Z,1011.70
2019-02-05T04:40:18.764Z,1011.72
2019-02-05T04:41:18.754Z,1011.70
2019-02-05T04:42:18.738Z,1011.69
2019-02-05T04:43:18.750Z,1011.68
2019-02-05T04:44:18.711Z,1011.70
2019-02-05T04:45:18.707Z,1011.67
2019-02-05T04:46:18.720Z,1011.65
2019-02-05T04:47:18.682Z,1011.64
2019-02-05T04:48:18.688Z,1011.70
2019-02-05T04:49:18.656Z,1011.67
2019-02-05T04:50:18.650Z,1011.73
2019-02-05T04:51:18.639Z,1011.68
2019-02-05T04:52:18.634Z,1011.68
2019-02-05T04:53:18.668Z,1011.66
2019-02-05T04:54:18.607Z,1011.65
2019-02-05T04:55:18.593Z,1011.70
2019-02-05T04:56:18.583Z,1011.72
2019-02-05T04:57:18.573Z,1011.77
2019-02-05T04:58:18.564Z,1011.74
2019-02-05T04:59:18.596Z,1011.80
2019-02-05T05:00:18.551Z,1011.75
2019-02-05T05:01:18.534Z,1011.78
2019-02-05T05:02:18.522Z,1011.77
2019-02-05T05:03:18.507Z,1011.73
2019-02-05T05:04:18.496Z,1011.73
2019-02-05T05:05:18.523Z,1011.77
2019-02-05T05:06:18.504Z,1011.75
2019-02-05T05:07:18.464Z,1011.78
2019-02-05T05:08:18.454Z,1011.80
2019-02-05T05:09:18.451Z,1011.80
2019-02-05T05:10:18.436Z,1011.80
2019-02-05T05:11:18.457Z,1011.79
2019-02-05T05:12:18.412Z,1011.84
2019-02-05T05:13:18.401Z,1011.85
2019-02-05T05:14:18.390Z,1011.87
2019-02-05T05:15:18.380Z,1011.92
2019-02-05T05:16:18.367Z,1011.91
2019-02-05T05:17:18.383Z,1011.87
2019-02-05T05:18:18.344Z,1011.89
2019-02-05T05:19:18.336Z,1011.87
2019-02-05T05:20:18.327Z,1011.96
2019-02-05T05:21:18.317Z,1011.92
2019-02-05T05:22:18.343Z,1011.94
2019-02-05T05:23:18.289Z,1011.94
2019-02-05T05:24:18.279Z,1011.94
2019-02-05T05:25:18.272Z,1011.95
2019-02-05T05:26:18.258Z,1011.99
2019-02-05T05:27:18.257Z,1011.98
2019-02-05T05:28:18.268Z,1011.98
2019-02-05T05:29:18.228Z,1011.99
2019-02-05T05:30:18.218Z,1011.95
2019-02-05T05:31:18.205Z,1011.94
2019-02-05T05:32:18.193Z,1012.00
2019-02-05T05:33:18.182Z,1012.01
2019-02-05T05:34:18.192Z,1011.99
2019-02-05T05:35:18.191Z,1012.01
2019-02-05T05:36:18.154Z,1011.99
2019-02-05T05:37:18.140Z,1011.96
2019-02-05T05:38:18.127Z,1012.04
2019-02-05T05:39:18.124Z,1011.95
2019-02-05T05:40:18.107Z,1011.96
2019-02-05T05:41:18.121Z,1012.00
2019-02-05T05:42:18.085Z,1011.98
2019-02-05T05:43:18.078Z,1011.99
2019-02-05T05:44:18.067Z,1012.03
2019-02-05T05:45:18.057Z,1012.02
2019-02-05T05:46:18.062Z,1012.02
2019-02-05T05:47:18.032Z,1012.02
2019-02-05T05:48:18.022Z,1012.04
2019-02-05T05:49:18.009Z,1012.03
2019-02-05T05:50:21.209Z,1012.05
2019-02-05T05:51:17.996Z,1012.05
2019-02-05T05:52:17.985Z,1012.02
2019-02-05T05:53:17.973Z,1012.07
2019-02-05T05:54:17.982Z,1011.97
2019-02-05T05:55:17.947Z,1011.99
2019-02-05T05:56:17.934Z,1012.02
2019-02-05T05:57:18.757Z,1012.00
2019-02-05T05:58:23.023Z,1012.02
2019-02-05T05:59:18.908Z,1012.02
2019-02-05T06:00:17.895Z,1012.03
2019-02-05T06:01:17.882Z,1012.02
2019-02-05T06:02:17.909Z,1012.13
2019-02-05T06:03:17.970Z,1012.11
2019-02-05T06:04:17.853Z,1012.14
2019-02-05T06:05:17.843Z,1012.16
2019-02-05T06:06:17.870Z,1012.14
2019-02-05T06:07:17.818Z,1012.12
2019-02-05T06:08:17.828Z,1012.07
2019-02-05T06:09:17.800Z,1012.16
2019-02-05T06:10:17.785Z,1012.14
2019-02-05T06:11:17.776Z,1012.11
2019-02-05T06:12:17.764Z,1012.18
2019-02-05T06:13:17.773Z,1012.08
2019-02-05T06:14:17.744Z,1012.14
2019-02-05T06:15:17.739Z,1012.15
2019-02-05T06:16:17.720Z,1012.17
2019-02-05T06:17:17.709Z,1012.20
2019-02-05T06:18:17.716Z,1012.19
2019-02-05T06:19:17.688Z,1012.24
2019-02-05T06:20:17.686Z,1012.19
2019-02-05T06:21:17.694Z,1012.18
2019-02-05T06:22:17.656Z,1012.18
2019-02-05T06:23:17.644Z,1012.16
2019-02-05T06:24:17.635Z,1012.19
2019-02-05T06:25:17.626Z,1012.17
2019-02-05T06:26:20.145Z,1012.25
2019-02-05T06:27:17.645Z,1012.15
2019-02-05T06:28:17.599Z,1012.16
2019-02-05T06:29:17.582Z,1012.19
2019-02-05T06:30:17.582Z,1012.22
2019-02-05T06:31:17.558Z,1012.20
2019-02-05T06:32:17.548Z,1012.25
2019-02-05T06:33:17.559Z,1012.22
2019-02-05T06:34:17.528Z,1012.27
2019-02-05T06:35:17.557Z,1012.25
2019-02-05T06:36:17.506Z,1012.28
2019-02-05T06:37:17.503Z,1012.31
2019-02-05T06:38:17.481Z,1012.35
2019-02-05T06:39:17.472Z,1012.35
2019-02-05T06:40:17.463Z,1012.36
2019-02-05T06:41:17.471Z,1012.37
2019-02-05T06:42:17.440Z,1012.41
2019-02-05T06:43:17.430Z,1012.46
2019-02-05T06:44:17.421Z,1012.42
2019-02-05T06:45:17.452Z,1012.51
2019-02-05T06:46:17.397Z,1012.47
2019-02-05T06:47:17.386Z,1012.50
2019-02-05T06:48:17.374Z,1012.49
2019-02-05T06:49:17.364Z,1012.54
2019-02-05T06:50:17.354Z,1012.58
2019-02-05T06:51:17.384Z,1012.50
2019-02-05T06:52:17.334Z,1012.56
2019-02-05T06:53:17.329Z,1012.55
2019-02-05T06:54:17.312Z,1012.52
2019-02-05T06:55:17.299Z,1012.52
2019-02-05T06:56:17.289Z,1012.46
2019-02-05T06:57:17.315Z,1012.48
2019-02-05T06:58:17.267Z,1012.52
2019-02-05T06:59:17.260Z,1012.56
2019-02-05T07:00:17.250Z,1012.61
2019-02-05T07:01:17.237Z,1012.60
2019-02-05T07:02:17.225Z,1012.62
2019-02-05T07:03:17.235Z,1012.67
2019-02-05T07:04:17.206Z,1012.65
2019-02-05T07:05:17.201Z,1012.68
2019-02-05T07:06:17.192Z,1012.68
2019-02-05T07:07:17.178Z,1012.68
2019-02-05T07:08:17.190Z,1012.71
2019-02-05T07:09:17.179Z,1012.72
2019-02-05T07:10:17.152Z,1012.77
2019-02-05T07:11:17.139Z,1012.81
2019-02-05T07:12:17.126Z,1012.79
2019-02-05T07:13:17.142Z,1012.84
2019-02-05T07:14:17.125Z,1012.88
2019-02-05T07:15:17.092Z,1012.89
2019-02-05T07:16:17.084Z,1012.85
2019-02-05T07:17:17.074Z,1012.91
2019-02-05T07:18:17.097Z,1012.89
2019-02-05T07:19:17.053Z,1012.92
2019-02-05T07:20:17.041Z,1012.89
2019-02-05T07:21:17.031Z,1012.92
2019-02-05T07:22:17.017Z,1012.95
2019-02-05T07:23:17.008Z,1012.95
2019-02-05T07:24:17.036Z,1012.98
2019-02-05T07:25:16.987Z,1012.94
2019-02-05T07:26:16.982Z,1012.93
2019-02-05T07:27:16.965Z,1013.03
2019-02-05T07:28:16.953Z,1013.01
2019-02-05T07:29:16.941Z,1013.03
2019-02-05T07:30:16.954Z,1013.00
2019-02-05T07:31:16.921Z,1012.97
2019-02-05T07:32:16.937Z,1013.00
2019-02-05T07:33:16.904Z,1012.99
2019-02-05T07:34:16.889Z,1013.00
2019-02-05T07:35:16.880Z,1013.02
2019-02-05T07:36:16.871Z,1012.99
2019-02-05T07:37:16.879Z,1013.00
2019-02-05T07:38:16.855Z,1013.01
2019-02-05T07:39:16.835Z,1013.01
2019-02-05T07:40:16.827Z,1013.06
2019-02-05T07:41:16.812Z,1012.97
2019-02-05T07:42:16.825Z,1013.03
2019-02-05T07:43:16.851Z,1013.07
2019-02-05T07:44:16.911Z,1013.03
2019-02-05T07:45:16.771Z,1013.07
2019-02-05T07:46:16.757Z,1013.04
2019-02-05T07:47:16.751Z,1013.09
2019-02-05T07:48:16.739Z,1013.05
2019-02-05T07:49:16.749Z,1013.09
2019-02-05T07:50:16.722Z,1013.13
2019-02-05T07:51:16.732Z,1013.14
2019-02-05T07:52:16.706Z,1013.17
2019-02-05T07:53:16.733Z,1013.21
2019-02-05T07:54:16.674Z,1013.21
2019-02-05T07:55:16.670Z,1013.20
2019-02-05T07:56:16.656Z,1013.20
2019-02-05T07:57:16.644Z,1013.21
2019-02-05T07:58:16.632Z,1013.22
2019-02-05T07:59:16.652Z,1013.20
2019-02-05T08:00:16.610Z,1013.18
2019-02-05T08:01:17.676Z,1013.26
2019-02-05T08:02:16.589Z,1013.23
2019-02-05T08:03:16.576Z,1013.26
2019-02-05T08:04:16.567Z,1013.26
2019-02-05T08:05:16.595Z,1013.27
2019-02-05T08:06:16.545Z,1013.31
2019-02-05T08:07:16.535Z,1013.33
2019-02-05T08:08:16.523Z,1013.31
2019-02-05T08:09:16.509Z,1013.41
2019-02-05T08:10:16.500Z,1013.37
2019-02-05T08:11:16.509Z,1013.47
2019-02-05T08:12:16.482Z,1013.46
2019-02-05T08:13:16.471Z,1013.44
2019-02-05T08:14:16.488Z,1013.48
2019-02-05T08:15:16.448Z,1013.48
2019-02-05T08:16:16.444Z,1013.43
2019-02-05T08:17:16.424Z,1013.46
2019-02-05T08:18:16.419Z,1013.46
2019-02-05T08:19:16.401Z,1013.38
2019-02-05T08:20:16.427Z,1013.41
2019-02-05T08:21:16.380Z,1013.44
2019-02-05T08:22:16.369Z,1013.45
2019-02-05T08:23:16.359Z,1013.41
2019-02-05T08:24:16.349Z,1013.44
2019-02-05T08:25:16.338Z,1013.44
2019-02-05T08:26:16.345Z,1013.45
2019-02-05T08:27:16.337Z,1013.45
2019-02-05T08:28:16.305Z,1013.46
2019-02-05T08:29:21.653Z,1013.53
2019-02-05T08:30:17.301Z,1013.47
2019-02-05T08:31:16.275Z,1013.54
2019-02-05T08:32:16.342Z,1013.62
2019-02-05T08:33:16.252Z,1013.63
2019-02-05T08:34:16.242Z,1013.63
2019-02-05T08:35:16.230Z,1013.68
2019-02-05T08:36:16.218Z,1013.67
2019-02-05T08:37:16.211Z,1013.63
2019-02-05T08:38:16.224Z,1013.69
2019-02-05T08:39:17.990Z,1013.65
2019-02-05T08:40:16.173Z,1013.71
2019-02-05T08:41:16.162Z,1013.71
2019-02-05T08:42:16.153Z,1013.69
2019-02-05T08:43:16.163Z,1013.73
2019-02-05T08:44:16.133Z,1013.68
2019-02-05T08:45:16.122Z,1013.73
2019-02-05T08:46:16.111Z,1013.73
2019-02-05T08:47:16.100Z,1013.79
2019-02-05T08:48:16.109Z,1013.76
2019-02-05T08:49:16.082Z,1013.81
2019-02-05T08:50:16.073Z,1013.82
2019-02-05T08:51:16.055Z,1013.82
2019-02-05T08:52:16.091Z,1013.84
2019-02-05T08:53:16.040Z,1013.83
2019-02-05T08:54:16.029Z,1013.82
2019-02-05T08:55:16.013Z,1013.80
2019-02-05T08:56:16.003Z,1013.85
2019-02-05T08:57:16.000Z,1013.84
2019-02-05T08:58:15.997Z,1013.82
2019-02-05T08:59:15.970Z,1013.82
2019-02-05T09:00:15.960Z,1013.86
2019-02-05T09:01:15.954Z,1013.89
2019-02-05T09:02:15.935Z,1013.87
2019-02-05T09:03:15.969Z,1013.90
2019-02-05T09:04:15.914Z,1013.90
2019-02-05T09:05:15.905Z,1013.89
2019-02-05T09:06:15.895Z,1013.87
2019-02-05T09:07:15.885Z,1013.92
2019-02-05T09:08:15.873Z,1013.91
2019-02-05T09:09:15.877Z,1013.95
2019-02-05T09:10:15.875Z,1013.94
2019-02-05T09:11:15.846Z,1013.92
2019-02-05T09:12:17.986Z,1013.91
2019-02-05T09:13:15.816Z,1013.95
2019-02-05T09:14:15.804Z,1013.93
2019-02-05T09:15:15.814Z,1013.94
2019-02-05T09:16:15.809Z,1013.98
2019-02-05T09:17:15.776Z,1013.98
2019-02-05T09:18:15.763Z,1013.99
2019-02-05T09:19:15.752Z,1014.02
2019-02-05T09:20:15.740Z,1013.98
2019-02-05T09:21:15.735Z,1013.98
2019-02-05T09:22:15.751Z,1014.01
2019-02-05T09:23:15.709Z,1014.02
2019-02-05T09:24:15.701Z,1014.05
2019-02-05T09:25:15.685Z,1014.02
2019-02-05T09:26:15.674Z,1014.01
2019-02-05T09:27:15.662Z,1014.06
2019-02-05T09:28:15.676Z,1014.01
2019-02-05T09:29:15.643Z,1014.00
2019-02-05T09:30:15.631Z,1013.96
2019-02-05T09:31:15.670Z,1013.98
2019-02-05T09:32:15.615Z,1014.05
2019-02-05T09:33:15.619Z,1014.09
2019-02-05T09:34:15.589Z,1014.08
2019-02-05T09:35:15.574Z,1014.06
2019-02-05T09:36:15.564Z,1014.11
2019-02-05T09:37:15.553Z,1014.08
2019-02-05T09:38:15.562Z,1014.12
2019-02-05T09:39:15.555Z,1014.08
2019-02-05T09:40:15.529Z,1014.06
2019-02-05T09:41:15.517Z,1014.09
2019-02-05T09:42:15.499Z,1014.11
2019-02-05T09:43:15.535Z,1014.13
2019-02-05T09:44:15.513Z,1014.14
2019-02-05T09:45:15.470Z,1014.09
2019-02-05T09:46:15.456Z,1014.12
2019-02-05T09:47:15.445Z,1014.11
2019-02-05T09:48:15.436Z,1014.12
2019-02-05T09:49:15.424Z,1014.14
2019-02-05T09:50:15.431Z,1014.12
2019-02-05T09:51:15.403Z,1014.16
2019-02-05T09:52:15.391Z,1014.21
2019-02-05T09:53:15.381Z,1014.20
2019-02-05T09:54:15.387Z,1014.19
2019-02-05T09:55:15.380Z,1014.22
2019-02-05T09:56:15.362Z,1014.22
2019-02-05T09:57:15.341Z,1014.27
2019-02-05T09:58:15.330Z,1014.26
2019-02-05T09:59:15.342Z,1014.26
2019-02-05T10:00:15.334Z,1014.28
2019-02-05T10:01:15.295Z,1014.30
2019-02-05T10:02:15.282Z,1014.25
2019-02-05T10:03:15.273Z,1014.29
2019-02-05T10:04:15.262Z,1014.28
2019-02-05T10:05:15.253Z,1014.26
2019-02-05T10:06:15.275Z,1014.31
2019-02-05T10:07:15.228Z,1014.31
2019-02-05T10:08:15.216Z,1014.31
2019-02-05T10:09:15.212Z,1014.32
2019-02-05T10:10:15.199Z,1014.32
2019-02-05T10:11:15.185Z,1014.38
2019-02-05T10:12:15.190Z,1014.37
2019-02-05T10:13:15.161Z,1014.39
2019-02-05T10:14:15.151Z,1014.38
2019-02-05T10:15:15.140Z,1014.42
2019-02-05T10:16:15.130Z,1014.37
2019-02-05T10:17:15.136Z,1014.37
2019-02-05T10:18:15.113Z,1014.36
2019-02-05T10:19:15.100Z,1014.36
2019-02-05T10:20:15.089Z,1014.32
2019-02-05T10:21:15.072Z,1014.34
2019-02-05T10:22:15.085Z,1014.36
2019-02-05T10:23:15.054Z,1014.40
2019-02-05T10:24:15.044Z,1014.35
2019-02-05T10:25:15.129Z,1014.38
2019-02-05T10:26:15.035Z,1014.39
2019-02-05T10:27:15.043Z,1014.41
2019-02-05T10:28:15.000Z,1014.40
2019-02-05T10:29:14.988Z,1014.47
2019-02-05T10:30:14.976Z,1014.46
2019-02-05T10:31:14.965Z,1014.46
2019-02-05T10:32:14.957Z,1014.45
2019-02-05T10:33:14.984Z,1014.46
2019-02-05T10:34:14.935Z,1014.45
2019-02-05T10:35:14.923Z,1014.46
2019-02-05T10:36:14.920Z,1014.44
2019-02-05T10:37:14.906Z,1014.45
2019-02-05T10:38:14.890Z,1014.46
2019-02-05T10:39:14.929Z,1014.48
2019-02-05T10:40:14.870Z,1014.52
2019-02-05T10:41:14.857Z,1014.48
2019-02-05T10:42:14.845Z,1014.52
2019-02-05T10:43:14.838Z,1014.51
2019-02-05T10:44:14.826Z,1014.51
2019-02-05T10:45:14.836Z,1014.46
2019-02-05T10:46:14.802Z,1014.50
2019-02-05T10:47:14.792Z,1014.50
2019-02-05T10:48:14.787Z,1014.49
2019-02-05T10:49:14.772Z,1014.51
2019-02-05T10:50:14.779Z,1014.54
2019-02-05T10:51:14.749Z,1014.54
2019-02-05T10:52:14.739Z,1014.58
2019-02-05T10:53:14.775Z,1014.62
2019-02-05T10:54:14.718Z,1014.59
2019-02-05T10:55:14.710Z,1014.57
2019-02-05T10:56:14.695Z,1014.57
2019-02-05T10:57:14.688Z,1014.60
2019-02-05T10:58:14.671Z,1014.60
2019-02-05T10:59:14.680Z,1014.61
2019-02-05T11:00:14.650Z,1014.51
2019-02-05T11:01:14.645Z,1014.53
2019-02-05T11:02:14.639Z,1014.46
2019-02-05T11:03:14.657Z,1014.50
2019-02-05T11:04:14.614Z,1014.45
2019-02-05T11:05:14.599Z,1014.43
2019-02-05T11:06:14.683Z,1014.47
2019-02-05T11:07:14.577Z,1014.47
2019-02-05T11:08:14.566Z,1014.41
2019-02-05T11:09:14.591Z,1014.38
2019-02-05T11:10:14.542Z,1014.46
2019-02-05T11:11:14.532Z,1014.44
2019-02-05T11:12:14.521Z,1014.41
2019-02-05T11:13:14.513Z,1014.47
2019-02-05T11:14:14.498Z,1014.48
2019-02-05T11:15:14.520Z,1014.43
2019-02-05T11:16:14.477Z,1014.43
2019-02-05T11:17:14.465Z,1014.38
2019-02-05T11:18:14.458Z,1014.39
2019-02-05T11:19:14.445Z,1014.36
2019-02-05T11:20:14.473Z,1014.40
2019-02-05T11:21:14.421Z,1014.35
2019-02-05T11:22:14.512Z,1014.35
2019-02-05T11:23:14.398Z,1014.36
2019-02-05T11:24:14.388Z,1014.37
2019-02-05T11:25:14.381Z,1014.35
2019-02-05T11:26:14.386Z,1014.34
2019-02-05T11:27:14.356Z,1014.31
2019-02-05T11:28:14.346Z,1014.36
2019-02-05T11:29:14.336Z,1014.30
2019-02-05T11:30:20.190Z,1014.27
2019-02-05T11:31:15.357Z,1014.26
2019-02-05T11:32:14.302Z,1014.29
2019-02-05T11:33:14.291Z,1014.28
2019-02-05T11:34:14.283Z,1014.30
2019-02-05T11:35:14.278Z,1014.28
2019-02-05T11:36:14.267Z,1014.30
2019-02-05T11:37:14.282Z,1014.28
2019-02-05T11:38:14.240Z,1014.24
2019-02-05T11:39:14.235Z,1014.28
2019-02-05T11:40:14.220Z,1014.30
2019-02-05T11:41:14.208Z,1014.25
2019-02-05T11:42:14.196Z,1014.29
2019-02-05T11:43:14.206Z,1014.27
2019-02-05T11:44:14.171Z,1014.30
2019-02-05T11:45:14.173Z,1014.31
2019-02-05T11:46:14.151Z,1014.37
2019-02-05T11:47:14.143Z,1014.34
2019-02-05T11:48:14.131Z,1014.30
2019-02-05T11:49:14.137Z,1014.33
2019-02-05T11:50:14.119Z,1014.26
2019-02-05T11:51:14.096Z,1014.28
2019-02-05T11:52:14.093Z,1014.28
2019-02-05T11:53:14.089Z,1014.27
2019-02-05T11:54:14.064Z,1014.26
2019-02-05T11:55:14.050Z,1014.25
2019-02-05T11:56:14.109Z,1014.20
2019-02-05T11:57:14.031Z,1014.28
2019-02-05T11:58:14.021Z,1014.29
2019-02-05T11:59:14.009Z,1014.25
2019-02-05T12:00:13.999Z,1014.25
2019-02-05T12:01:14.008Z,1014.24
2019-02-05T12:02:13.985Z,1014.23
2019-02-05T12:03:13.963Z,1014.27
2019-02-05T12:04:13.952Z,1014.32
2019-02-05T12:05:13.944Z,1014.31